Time;durP1;ratioP1;P1;durP2;ratioP2;P2;SDS_P1;SDS_P2;PMS_P1;PMS_P2;Temp;Humidity;BMP_temperature;BMP_pressure;BME280_temperature;BME280_humidity;BME280_pressure;Samples;Min_cycle;Max_cycle;Signal;HPM_P1;HPM_P2
2022/01/17 00:01:16;;;;;;;32.95;23.35;;;5.80;99.90;;;5.87;79.32;101409.09;4936880;29;20209;-71
2022/01/17 00:03:46;;;;;;;37.15;23.27;;;5.80;99.90;;;5.93;79.18;101412.00;4936714;29;20208;-71
2022/01/17 00:06:14;;;;;;;28.60;21.45;;;5.80;99.90;;;5.87;78.76;101412.63;4936564;29;20212;-70
2022/01/17 00:08:44;;;;;;;30.23;22.35;;;5.80;99.90;;;5.93;78.79;101405.78;4919510;29;20192;-70
2022/01/17 00:11:14;;;;;;;35.10;22.92;;;5.80;99.90;;;5.98;78.55;101392.72;4920057;29;20546;-70
2022/01/17 00:13:45;;;;;;;33.53;21.80;;;5.90;99.90;;;5.95;78.13;101390.38;4935868;29;20623;-70
2022/01/17 00:16:20;;;;;;;25.80;19.63;;;5.90;99.90;;;5.98;78.18;101400.78;4936206;29;20263;-70
2022/01/17 00:21:46;;;;;;;28.13;18.08;;;5.90;99.90;;;5.97;77.58;101401.78;4936821;29;20181;-70
2022/01/17 00:24:15;;;;;;;26.35;17.30;;;5.90;99.90;;;5.95;77.52;101377.78;4936754;29;20492;-70
2022/01/17 00:26:46;;;;;;;22.70;16.05;;;5.90;99.90;;;6.00;77.26;101380.00;4936732;29;20554;-71
2022/01/17 00:29:18;;;;;;;26.45;18.35;;;5.90;99.90;;;6.00;76.98;101382.69;4937089;29;20177;-70
2022/01/17 00:31:47;;;;;;;24.95;15.73;;;5.90;99.90;;;5.98;76.94;101377.47;4936661;29;20188;-72
2022/01/17 00:34:16;;;;;;;26.13;15.80;;;5.90;99.90;;;6.01;77.35;101387.03;4936611;29;20542;-71
2022/01/17 00:36:44;;;;;;;24.05;17.23;;;5.90;99.90;;;6.07;77.07;101391.75;4936394;29;20251;-70
2022/01/17 00:39:13;;;;;;;25.75;13.90;;;6.00;99.90;;;6.05;76.68;101393.78;4937177;29;20185;-71
2022/01/17 00:41:41;;;;;;;25.65;16.70;;;6.00;99.90;;;6.04;76.45;101400.16;4937154;29;20181;-70
2022/01/17 00:44:10;;;;;;;21.60;13.73;;;6.00;99.90;;;6.11;75.95;101387.75;4937636;29;20248;-71
2022/01/17 00:46:39;;;;;;;22.40;13.77;;;6.00;99.90;;;6.09;76.11;101397.84;4937254;29;20236;-69
2022/01/17 00:49:12;;;;;;;20.73;14.38;;;6.00;99.90;;;6.17;76.07;101376.34;4937183;29;20181;-70
2022/01/17 00:51:40;;;;;;;18.00;13.32;;;6.00;99.90;;;6.17;75.49;101376.34;4936246;29;20175;-70
2022/01/17 00:54:09;;;;;;;23.20;13.38;;;6.10;99.90;;;6.18;75.79;101367.28;4919143;29;20212;-71
2022/01/17 00:56:37;;;;;;;18.02;11.40;;;6.10;99.90;;;6.22;75.10;101371.34;4918901;29;20223;-70
2022/01/17 00:59:05;;;;;;;21.88;13.68;;;6.10;99.90;;;6.11;75.82;101371.63;4936248;29;20209;-70
2022/01/17 01:01:34;;;;;;;23.02;14.50;;;6.10;99.90;;;6.16;75.08;101369.28;4935746;29;20193;-71
2022/01/17 01:04:05;;;;;;;20.92;12.88;;;6.10;99.90;;;6.20;75.46;101365.28;4935730;29;20233;-71
2022/01/17 01:06:36;;;;;;;19.30;12.90;;;6.10;99.90;;;6.20;75.19;101353.69;4935783;29;20235;-70
2022/01/17 01:09:05;;;;;;;27.23;11.25;;;6.10;99.90;;;6.19;75.26;101342.13;4936021;29;20185;-71
2022/01/17 01:11:34;;;;;;;19.27;12.18;;;6.10;99.90;;;6.26;75.12;101358.41;4936555;29;20244;-69
2022/01/17 01:14:05;;;;;;;21.27;12.95;;;6.10;99.90;;;6.28;75.23;101357.25;4936949;29;20287;-70
2022/01/17 01:16:35;;;;;;;14.13;10.52;;;6.20;99.90;;;6.29;74.89;101364.31;4936731;29;20213;-70
2022/01/17 01:27:47;;;;;;;15.07;10.38;;;6.30;99.90;;;6.31;74.86;101362.28;4935643;29;20185;-72
2022/01/17 01:30:18;;;;;;;18.20;10.45;;;6.20;99.90;;;6.33;74.74;101370.22;4936606;29;20185;-70
2022/01/17 01:32:50;;;;;;;16.05;10.63;;;6.30;99.90;;;6.44;74.27;101359.97;4936586;29;20173;-72
2022/01/17 01:35:22;;;;;;;18.52;8.80;;;6.30;99.90;;;6.32;74.07;101364.00;4936590;29;20224;-70
2022/01/17 01:37:53;;;;;;;10.73;7.65;;;6.30;99.90;;;6.32;73.99;101364.00;4936117;29;20185;-70
2022/01/17 01:40:23;;;;;;;10.73;7.20;;;6.30;99.90;;;6.36;73.49;101361.81;4936156;29;20743;-71
2022/01/17 01:42:53;;;;;;;12.25;6.93;;;6.30;99.90;;;6.36;73.65;101370.72;4936632;29;20236;-72
2022/01/17 01:45:22;;;;;;;12.38;6.90;;;6.30;99.90;;;6.29;73.23;101356.25;4935649;29;20215;-71
2022/01/17 01:47:51;;;;;;;10.23;5.57;;;6.20;99.90;;;6.29;73.16;101379.59;4935841;29;20185;-72
2022/01/17 01:50:19;;;;;;;11.15;5.75;;;6.20;99.90;;;6.27;73.12;101371.69;4935819;29;20185;-71
2022/01/17 01:52:52;;;;;;;7.13;4.13;;;6.20;99.90;;;6.19;73.10;101395.88;4935685;29;20237;-70
2022/01/17 01:55:21;;;;;;;9.55;4.55;;;6.10;99.90;;;6.21;72.45;101375.03;4935790;29;20760;-70
2022/01/17 01:57:50;;;;;;;8.90;3.47;;;6.10;99.90;;;6.14;73.43;101373.16;4935539;29;20196;-71
2022/01/17 02:00:20;;;;;;;5.70;3.55;;;6.10;99.90;;;6.00;74.54;101390.72;4938851;29;20182;-71
2022/01/17 02:02:49;;;;;;;7.28;2.85;;;6.10;99.90;;;5.84;75.07;101386.09;4949044;29;20216;-70
2022/01/17 02:05:18;;;;;;;11.73;3.20;;;5.90;99.90;;;5.70;76.11;101389.34;4947577;29;20588;-71
2022/01/17 02:07:47;;;;;;;5.95;2.83;;;5.80;99.90;;;5.55;76.94;101381.03;4938227;29;20192;-70
2022/01/17 02:10:17;;;;;;;4.53;2.60;;;5.60;99.90;;;5.43;76.58;101403.75;4935874;29;20258;-69
2022/01/17 02:12:45;;;;;;;5.07;2.80;;;5.50;99.90;;;5.39;76.57;101380.06;4935907;29;20189;-71
2022/01/17 02:15:17;;;;;;;4.00;2.40;;;5.40;99.90;;;5.33;77.02;101373.47;4936116;29;20213;-70
2022/01/17 02:17:54;;;;;;;7.60;2.20;;;5.40;99.90;;;5.30;76.23;101373.81;4939107;29;20173;-70
2022/01/17 02:20:41;;;;;;;5.55;2.17;;;5.30;99.90;;;5.33;75.31;101337.75;4939153;29;20177;-70
2022/01/17 02:23:10;;;;;;;9.20;2.25;;;5.30;99.90;;;5.37;75.33;101334.63;4939153;29;20177;-69
2022/01/17 02:25:38;;;;;;;5.82;1.85;;;5.30;99.90;;;5.38;73.50;101304.06;4938805;29;20209;-71
2022/01/17 02:28:07;;;;;;;6.25;1.42;;;5.30;99.90;;;5.48;71.63;101299.44;4938978;29;20196;-70
2022/01/17 02:30:35;;;;;;;11.50;1.42;;;5.40;99.90;;;5.55;71.85;101295.13;4939156;29;20658;-71
2022/01/17 02:33:04;;;;;;;7.90;2.40;;;5.40;99.90;;;5.55;71.53;101296.97;4938903;29;20228;-71
2022/01/17 02:35:34;;;;;;;8.00;2.90;;;5.50;99.90;;;5.63;70.03;101268.31;4960927;23;20226;-71
2022/01/17 02:38:02;;;;;;;11.75;2.55;;;5.60;99.90;;;5.66;70.27;101276.03;4976253;28;20216;-72
2022/01/17 02:40:31;;;;;;;6.45;2.38;;;5.60;99.90;;;5.71;69.71;101266.69;4957414;28;20203;-70
2022/01/17 02:43:03;;;;;;;6.65;2.53;;;5.70;99.90;;;5.72;69.56;101274.56;4973341;28;20207;-70
2022/01/17 02:45:33;;;;;;;4.30;2.90;;;5.70;99.90;;;5.83;69.20;101260.00;4974430;28;20168;-71
2022/01/17 02:48:04;;;;;;;8.70;2.30;;;5.70;99.90;;;5.82;68.51;101250.25;4974845;28;20226;-71
2022/01/17 02:50:34;;;;;;;11.98;3.25;;;5.70;99.90;;;5.83;68.67;101254.63;4974175;28;20239;-71
2022/01/17 02:53:08;;;;;;;9.20;2.60;;;5.80;99.90;;;5.86;68.90;101227.44;4974540;28;20191;-71
2022/01/17 02:55:39;;;;;;;9.38;2.97;;;5.80;99.90;;;5.86;68.13;101217.53;4974417;28;20182;-73
2022/01/17 02:58:07;;;;;;;8.52;2.95;;;5.80;99.90;;;5.87;68.64;101245.25;4974629;28;20204;-70
2022/01/17 03:00:36;;;;;;;5.00;1.85;;;5.80;99.90;;;5.89;68.47;101243.28;4974033;28;20188;-70
2022/01/17 03:03:05;;;;;;;6.03;1.55;;;5.80;99.90;;;5.92;68.35;101245.63;4957115;28;20286;-70
2022/01/17 03:05:34;;;;;;;10.75;2.75;;;5.90;99.90;;;5.93;67.45;101250.84;4956540;28;20218;-70
2022/01/17 03:08:04;;;;;;;6.32;1.90;;;5.90;99.90;;;5.91;67.89;101227.81;4974019;28;20690;-69
2022/01/17 03:10:39;;;;;;;9.00;2.58;;;5.90;99.90;;;5.92;68.07;101211.53;4973848;28;20172;-70
2022/01/17 03:13:12;;;;;;;10.50;2.45;;;5.90;99.90;;;5.91;67.62;101214.38;4973502;28;20201;-71
2022/01/17 03:15:44;;;;;;;14.07;2.50;;;5.90;99.90;;;5.94;67.86;101219.44;4974042;28;20168;-72
2022/01/17 03:18:16;;;;;;;7.45;1.83;;;5.90;99.90;;;5.94;67.15;101235.56;4974065;28;20266;-71
2022/01/17 03:20:46;;;;;;;19.30;2.35;;;5.90;99.90;;;5.98;67.58;101235.06;4974912;28;20199;-70
2022/01/17 03:23:14;;;;;;;7.38;1.55;;;5.90;99.90;;;5.98;67.14;101236.91;4974401;28;20206;-71
2022/01/17 03:25:43;;;;;;;12.13;2.85;;;5.90;99.90;;;6.00;67.25;101234.91;4974304;28;20250;-70
2022/01/17 03:28:11;;;;;;;10.32;2.03;;;5.90;99.90;;;5.98;67.02;101220.78;4973988;28;20219;-71
2022/01/17 03:30:40;;;;;;;11.48;3.03;;;5.90;99.90;;;5.96;67.04;101212.03;4959805;28;20264;-69
2022/01/17 03:33:13;;;;;;;12.18;2.53;;;5.90;99.90;;;5.98;67.33;101210.03;4963449;28;20199;-69
2022/01/17 03:35:44;;;;;;;6.18;3.05;;;5.90;99.90;;;5.95;67.29;101207.72;4980198;28;20197;-72
2022/01/17 03:38:19;;;;;;;10.27;2.28;;;5.90;99.90;;;5.91;67.35;101209.00;4981724;28;20571;-72
2022/01/17 03:40:50;;;;;;;9.60;2.35;;;5.90;99.90;;;5.88;67.65;101206.66;4981334;28;20199;-70
2022/01/17 03:43:21;;;;;;;12.02;2.58;;;5.80;99.90;;;5.90;67.59;101201.97;4982201;28;20180;-69
2022/01/17 03:45:51;;;;;;;5.35;2.33;;;5.80;99.90;;;5.92;67.73;101194.59;4980271;28;20195;-71
2022/01/17 03:48:21;;;;;;;5.03;1.52;;;5.90;99.90;;;5.90;67.71;101200.13;4973472;28;20589;-72
2022/01/17 03:50:51;;;;;;;10.93;3.08;;;5.90;99.90;;;5.92;67.31;101202.63;4973291;28;20264;-70
2022/01/17 03:53:21;;;;;;;16.92;3.20;;;5.90;99.90;;;5.92;67.51;101208.84;4973335;28;20629;-71
2022/01/17 03:55:50;;;;;;;5.60;2.45;;;5.90;99.90;;;5.86;67.65;101208.63;4973904;28;20183;-70
2022/01/17 03:58:18;;;;;;;6.32;2.08;;;5.80;99.90;;;5.90;67.79;101202.81;4955694;28;20223;-71
2022/01/17 04:00:51;;;;;;;4.18;1.80;;;5.90;99.90;;;5.93;67.84;101207.84;4973219;28;20179;-70
2022/01/17 04:03:19;;;;;;;11.30;2.50;;;5.90;99.90;;;5.94;67.69;101219.44;4977298;28;20184;-71
2022/01/17 04:05:48;;;;;;;10.77;2.25;;;5.90;99.90;;;5.91;67.88;101220.59;4976009;28;20207;-70
2022/01/17 04:08:16;;;;;;;10.35;2.63;;;5.90;99.90;;;5.96;67.89;101222.78;4973283;28;20211;-70
2022/01/17 04:10:47;;;;;;;9.48;2.90;;;5.90;99.90;;;6.00;67.67;101226.84;4955849;28;20187;-70
2022/01/17 04:13:16;;;;;;;13.65;2.60;;;5.90;99.90;;;6.01;67.50;101223.13;4973293;28;20416;-71
2022/01/17 04:15:45;;;;;;;14.30;3.60;;;5.90;99.90;;;6.02;67.72;101228.34;4972874;28;20187;-71
2022/01/17 04:18:14;;;;;;;11.52;2.53;;;6.00;99.90;;;5.99;68.12;101225.16;4958587;28;20318;-70
2022/01/17 04:20:44;;;;;;;11.88;2.15;;;6.00;99.90;;;6.01;68.23;101225.81;4955424;28;20195;-71
2022/01/17 04:23:14;;;;;;;8.50;2.60;;;6.00;99.90;;;5.97;68.29;101217.25;4973224;28;20217;-70
2022/01/17 04:25:46;;;;;;;16.83;3.75;;;5.90;99.90;;;5.95;68.85;101210.38;4955795;28;20215;-71
2022/01/17 04:28:16;;;;;;;9.38;2.30;;;5.90;99.90;;;5.89;68.97;101211.88;4956266;28;20589;-70
2022/01/17 04:30:44;;;;;;;8.05;2.00;;;5.90;99.90;;;5.96;68.99;101209.34;4957046;28;20187;-71
2022/01/17 04:33:14;;;;;;;12.10;2.88;;;5.90;99.90;;;5.90;69.32;101204.66;4973485;28;20603;-70
2022/01/17 04:35:44;;;;;;;9.73;2.35;;;5.90;99.90;;;5.84;69.97;101200.75;4972906;28;20199;-72
2022/01/17 04:38:18;;;;;;;13.65;2.15;;;5.80;99.90;;;5.84;70.14;101187.31;4955175;28;20737;-72
2022/01/17 04:41:01;;;;;;;11.15;3.35;;;5.80;99.90;;;5.84;70.37;101197.22;4972426;28;20179;-72
2022/01/17 04:43:56;;;;;;;12.95;3.15;;;5.80;99.90;;;5.80;70.48;101212.00;4972549;28;20183;-71
2022/01/17 04:46:25;;;;;;;6.85;2.05;;;5.80;99.90;;;5.83;70.77;101211.66;4971994;28;20278;-70
2022/01/17 04:48:53;;;;;;;7.22;2.00;;;5.80;99.90;;;5.85;70.67;101220.41;4971940;28;20208;-70
2022/01/17 04:51:21;;;;;;;5.20;2.78;;;5.80;99.90;;;5.80;71.17;101212.84;4971720;28;20191;-71
2022/01/17 04:54:09;;;;;;;5.93;2.97;;;5.80;99.90;;;5.78;71.45;101197.88;4971858;28;20184;-71
2022/01/17 04:56:39;;;;;;;6.38;2.67;;;5.80;99.90;;;5.81;71.59;101170.72;4972257;28;20176;-70
2022/01/17 04:59:08;;;;;;;11.10;3.60;;;5.80;99.90;;;5.83;71.65;101163.31;4972336;28;20207;-71
2022/01/17 05:01:36;;;;;;;14.13;3.00;;;5.80;99.90;;;5.77;71.97;101158.59;4973369;28;20188;-70
2022/01/17 05:04:05;;;;;;;8.57;3.78;;;5.80;99.90;;;5.73;72.51;101168.81;4955256;28;20278;-71
2022/01/17 05:06:33;;;;;;;6.07;1.75;;;5.70;99.90;;;5.74;72.76;101183.09;4954315;28;20258;-71
2022/01/17 05:09:03;;;;;;;11.57;3.00;;;5.70;99.90;;;5.73;72.59;101159.94;4972007;28;20647;-71
2022/01/17 05:11:32;;;;;;;14.60;3.03;;;5.70;99.90;;;5.75;72.36;101160.63;4971917;28;20176;-71
2022/01/17 05:14:02;;;;;;;11.48;2.20;;;5.70;99.90;;;5.73;72.43;101167.97;4971742;28;20560;-71
2022/01/17 05:16:35;;;;;;;12.18;2.55;;;5.70;99.90;;;5.78;72.31;101152.22;4972039;28;20179;-71
2022/01/17 05:21:50;;;;;;;12.60;2.95;;;5.80;99.90;;;5.80;71.85;101142.16;4955241;28;20555;-70
2022/01/17 05:24:18;;;;;;;8.07;2.30;;;5.80;99.90;;;5.79;72.14;101143.16;4972474;28;20195;-72
2022/01/17 05:26:47;;;;;;;8.45;3.08;;;5.70;99.90;;;5.77;71.99;101137.94;4973267;28;20254;-70
2022/01/17 05:29:17;;;;;;;8.75;2.80;;;5.70;99.90;;;5.84;71.93;101140.81;4972478;28;20214;-71
2022/01/17 05:31:45;;;;;;;9.88;3.08;;;5.80;99.90;;;5.89;71.79;101162.69;4956595;28;20203;-71
2022/01/17 05:34:14;;;;;;;10.07;2.05;;;5.80;99.90;;;5.91;71.92;101155.28;4975585;28;20191;-70
2022/01/17 05:36:42;;;;;;;9.38;2.40;;;5.80;99.90;;;5.90;71.66;101156.31;4976080;28;20191;-71
2022/01/17 05:39:11;;;;;;;5.88;2.83;;;5.90;99.90;;;5.97;71.54;101165.38;4974300;28;20574;-71
2022/01/17 05:41:39;;;;;;;9.05;2.60;;;5.90;99.90;;;5.95;71.95;101162.03;4975750;28;20231;-71
2022/01/17 05:44:07;;;;;;;6.65;2.85;;;5.90;99.90;;;5.95;71.94;101151.28;4972423;28;20254;-71
2022/01/17 05:46:37;;;;;;;8.48;2.15;;;5.90;99.90;;;5.94;71.84;101149.59;4971589;28;20196;-70
2022/01/17 05:49:06;;;;;;;9.75;2.30;;;5.90;99.90;;;5.97;72.18;101141.19;4971818;28;20207;-70
2022/01/17 05:51:34;;;;;;;8.88;3.05;;;5.90;99.90;;;5.99;72.08;101172.28;4974116;28;20469;-70
2022/01/17 05:54:03;;;;;;;9.05;3.92;;;5.90;99.90;;;6.02;71.98;101163.88;4985780;28;20171;-70
2022/01/17 05:56:32;;;;;;;7.18;2.75;;;5.90;99.90;;;6.02;72.01;101160.34;4968953;28;20238;-72
2022/01/17 05:59:01;;;;;;;10.65;2.10;;;5.90;99.90;;;5.98;72.23;101172.44;4970482;28;20230;-73
2022/01/17 06:01:29;;;;;;;10.80;3.13;;;5.90;99.90;;;6.02;72.08;101154.97;4977315;28;20176;-75
2022/01/17 06:03:59;;;;;;;8.55;2.75;;;6.00;99.90;;;5.98;72.50;101148.25;4976248;28;20195;-73
2022/01/17 06:06:28;;;;;;;10.77;3.30;;;6.00;99.90;;;5.99;72.49;101136.53;4988777;28;20220;-72
2022/01/17 06:08:57;;;;;;;11.02;2.30;;;5.90;99.90;;;6.01;72.26;101142.53;4974513;28;20226;-73
2022/01/17 06:11:26;;;;;;;17.92;2.72;;;6.00;99.90;;;5.97;72.81;101149.25;4975115;28;20290;-74
2022/01/17 06:13:55;;;;;;;6.35;2.90;;;5.90;99.90;;;5.95;73.08;101119.06;4976268;28;20329;-72
2022/01/17 06:16:23;;;;;;;5.65;2.00;;;5.90;99.90;;;5.98;72.78;101126.78;4979084;28;20631;-73
2022/01/17 06:18:52;;;;;;;6.15;2.63;;;5.90;99.90;;;5.92;73.47;101124.75;4960965;28;20269;-73
2022/01/17 06:21:24;;;;;;;9.73;2.53;;;5.90;99.90;;;5.96;73.37;101131.47;4978560;28;20725;-72
2022/01/17 06:23:53;;;;;;;6.80;2.17;;;5.90;99.90;;;5.93;74.26;101150.59;4980537;28;20184;-75
2022/01/17 06:26:22;;;;;;;10.23;2.47;;;5.90;99.90;;;5.91;75.16;101157.97;4958535;28;20302;-74
2022/01/17 06:28:50;;;;;;;10.27;2.72;;;5.90;99.90;;;5.82;75.20;101172.38;4974552;28;20682;-75
2022/01/17 06:31:19;;;;;;;5.18;1.90;;;5.80;99.90;;;5.76;75.52;101167.69;4959490;28;20180;-72
2022/01/17 06:33:48;;;;;;;12.88;4.00;;;5.80;99.90;;;5.71;76.14;101160.13;4958149;28;20201;-74
2022/01/17 06:36:17;;;;;;;6.68;2.10;;;5.70;99.90;;;5.66;76.69;101146.34;4975224;28;20513;-74
2022/01/17 06:38:47;;;;;;;10.50;2.10;;;5.70;99.90;;;5.65;77.24;101118.66;4975675;28;20211;-73
2022/01/17 06:41:15;;;;;;;8.32;3.05;;;5.60;99.90;;;5.60;77.11;101110.25;4974593;28;20203;-74
2022/01/17 06:43:44;;;;;;;10.50;3.85;;;5.60;99.90;;;5.67;77.62;101108.56;4957897;28;20191;-73
2022/01/17 06:46:14;;;;;;;12.75;3.65;;;5.60;99.90;;;5.63;77.42;101093.78;4958037;28;20215;-73
2022/01/17 06:48:46;;;;;;;6.93;2.10;;;5.60;99.90;;;5.61;77.24;101068.97;4960301;28;20411;-74
2022/01/17 06:51:15;;;;;;;10.90;2.47;;;5.60;99.90;;;5.63;77.63;101056.22;4976472;28;20415;-73
2022/01/17 06:53:48;;;;;;;10.30;2.38;;;5.60;99.90;;;5.55;78.07;101058.91;4976148;28;20215;-73
2022/01/17 06:56:16;;;;;;;7.32;1.85;;;5.60;99.90;;;5.51;78.49;101076.34;4978530;28;20191;-73
2022/01/17 06:58:45;;;;;;;5.43;2.47;;;5.50;99.90;;;5.49;78.59;101094.44;4982421;28;20269;-73
2022/01/17 07:01:15;;;;;;;8.80;2.50;;;5.50;99.90;;;5.46;79.35;101092.09;4965823;28;20203;-74
2022/01/17 07:03:44;;;;;;;5.45;3.00;;;5.40;99.90;;;5.41;79.46;101077.50;4973775;28;20197;-71
2022/01/17 07:06:12;;;;;;;8.18;2.58;;;5.40;99.90;;;5.36;80.30;101091.41;4973958;28;20239;-70
2022/01/17 07:08:40;;;;;;;5.82;2.22;;;5.40;99.90;;;5.35;80.11;101121.91;4956176;28;20234;-71
2022/01/17 07:11:10;;;;;;;8.00;2.80;;;5.30;99.90;;;5.35;79.94;101132.66;4956918;28;20250;-71
2022/01/17 07:13:39;;;;;;;8.32;2.85;;;5.40;99.90;;;5.31;80.53;101136.66;4976850;28;20179;-72
2022/01/17 07:16:07;;;;;;;10.73;2.33;;;5.30;99.90;;;5.28;80.90;101139.66;4979212;28;20195;-72
2022/01/17 07:18:35;;;;;;;10.80;3.28;;;5.30;99.90;;;5.28;81.11;101115.50;4981676;28;20817;-71
2022/01/17 07:21:05;;;;;;;6.75;1.33;;;5.30;99.90;;;5.32;81.18;101111.50;4973926;28;20242;-71
2022/01/17 07:23:34;;;;;;;9.73;2.70;;;5.30;99.90;;;5.36;80.71;101110.19;4974099;28;20184;-70
2022/01/17 07:26:02;;;;;;;13.20;2.97;;;5.30;99.90;;;5.37;80.58;101093.09;4973848;28;20678;-71
2022/01/17 07:28:32;;;;;;;11.93;2.17;;;5.30;99.90;;;5.38;80.71;101077.78;4973226;28;20211;-70
2022/01/17 07:31:00;;;;;;;8.07;2.53;;;5.30;99.90;;;5.38;80.53;101064.38;4973772;28;20720;-69
2022/01/17 07:33:30;;;;;;;11.25;2.85;;;5.30;99.90;;;5.41;80.29;101051.50;4956088;28;20191;-71
2022/01/17 07:35:59;;;;;;;5.80;3.00;;;5.40;99.90;;;5.43;80.08;101054.00;4974213;28;20678;-70
2022/01/17 07:38:27;;;;;;;9.23;2.65;;;5.40;99.90;;;5.45;79.69;101068.09;4974101;28;20556;-71
2022/01/17 07:40:56;;;;;;;16.35;3.70;;;5.40;99.90;;;5.51;80.05;101057.56;4973978;28;20574;-71
2022/01/17 07:43:25;;;;;;;8.38;1.92;;;5.50;99.90;;;5.52;79.87;101045.78;4973091;28;20176;-71
2022/01/17 07:46:04;;;;;;;10.65;2.45;;;5.50;99.90;;;5.59;79.71;101070.97;4973869;28;20186;-70
2022/01/17 07:48:57;;;;;;;6.50;2.42;;;5.50;99.90;;;5.61;79.88;101055.56;4973813;28;20206;-70
2022/01/17 07:51:27;;;;;;;5.82;2.10;;;5.60;99.90;;;5.60;79.90;101051.19;4973507;28;20180;-70
2022/01/17 07:53:56;;;;;;;6.63;3.35;;;5.50;99.90;;;5.64;79.57;101062.41;4959156;28;20246;-69
2022/01/17 07:56:25;;;;;;;9.43;2.63;;;5.60;99.90;;;5.72;78.92;101053.53;4974037;28;20255;-70
2022/01/17 07:58:53;;;;;;;7.70;2.70;;;5.60;99.90;;;5.73;78.77;101055.19;4974819;28;20234;-70
2022/01/17 08:01:23;;;;;;;9.93;3.28;;;5.70;99.90;;;5.75;79.30;101043.31;4957999;28;20558;-71
2022/01/17 08:03:52;;;;;;;9.07;3.38;;;5.70;99.90;;;5.74;79.63;101068.47;4975864;28;20183;-71
2022/01/17 08:06:21;;;;;;;8.38;2.90;;;5.70;99.90;;;5.66;80.16;101050.50;4957032;28;20704;-70
2022/01/17 08:08:49;;;;;;;9.68;2.70;;;5.70;99.90;;;5.73;80.07;101036.41;4975458;28;20263;-71
2022/01/17 08:11:18;;;;;;;7.32;2.60;;;5.70;99.90;;;5.77;79.42;101060.06;4977762;28;20171;-71
2022/01/17 08:13:47;;;;;;;10.45;3.33;;;5.70;99.90;;;5.76;79.80;101058.38;4975880;28;20180;-71
2022/01/17 08:16:16;;;;;;;8.15;2.35;;;5.70;99.90;;;5.74;80.21;101030.03;4972855;28;20210;-71
2022/01/17 08:18:46;;;;;;;7.22;2.90;;;5.70;99.90;;;5.68;80.82;101032.38;4955325;28;20235;-71
2022/01/17 08:21:15;;;;;;;10.38;2.40;;;5.70;99.90;;;5.73;80.71;101041.78;4972629;28;20199;-71
2022/01/17 08:23:44;;;;;;;7.05;2.22;;;5.70;99.90;;;5.69;80.81;101009.91;4972814;28;20638;-71
2022/01/17 08:26:13;;;;;;;13.55;3.63;;;5.70;99.90;;;5.80;81.27;100998.00;4972362;28;20203;-70
2022/01/17 08:28:50;;;;;;;10.50;4.50;;;5.70;99.90;;;5.84;80.57;101001.16;4988177;23;20227;-78
2022/01/17 08:31:20;;;;;;;10.35;5.45;;;5.80;99.90;;;5.84;80.74;100966.25;4973740;28;20176;-75
2022/01/17 08:33:59;;;;;;;7.40;3.92;;;5.80;99.90;;;5.82;80.67;101005.84;4972858;28;20191;-75
2022/01/17 08:36:29;;;;;;;5.95;2.58;;;5.80;99.90;;;5.82;80.60;100995.97;4973755;28;20199;-75
2022/01/17 08:39:00;;;;;;;6.60;2.70;;;5.80;99.90;;;5.86;80.64;101026.00;4973942;28;20254;-75
2022/01/17 08:41:29;;;;;;;3.10;2.17;;;5.80;99.90;;;5.83;80.98;101012.91;4965388;28;20286;-75
2022/01/17 08:44:02;;;;;;;6.90;2.88;;;5.80;99.90;;;5.91;80.50;101037.09;4954844;28;20200;-76
2022/01/17 08:46:40;;;;;;;5.13;1.95;;;5.80;99.90;;;5.93;80.50;101061.97;4954924;28;20200;-77
2022/01/17 08:49:12;;;;;;;8.70;2.30;;;5.80;99.90;;;5.96;80.75;101053.56;4954846;28;20219;-76
2022/01/17 08:51:47;;;;;;;4.85;2.60;;;5.90;99.90;;;6.02;80.47;101077.06;4954712;28;20171;-77
2022/01/17 08:54:17;;;;;;;5.53;2.33;;;5.90;99.90;;;6.05;80.42;101076.75;4954552;28;20198;-76
2022/01/17 08:56:47;;;;;;;11.98;1.83;;;6.00;99.90;;;6.15;79.42;101042.47;4954767;28;20214;-75
2022/01/17 08:59:16;;;;;;;4.60;2.20;;;6.10;99.90;;;6.22;79.60;101051.53;4954876;28;20259;-75
2022/01/17 09:01:49;;;;;;;2.90;1.88;;;6.10;99.90;;;6.22;79.39;101067.66;4955053;29;20201;-75
2022/01/17 09:04:24;;;;;;;7.75;1.98;;;6.20;99.90;;;6.20;79.74;101058.06;4955268;28;20256;-75
2022/01/17 09:07:00;;;;;;;5.15;2.20;;;6.10;99.90;;;6.21;80.23;101044.47;4955217;28;20200;-74
2022/01/17 09:09:34;;;;;;;4.32;2.80;;;6.20;99.90;;;6.13;80.83;101047.19;4954797;28;20223;-77
2022/01/17 09:12:06;;;;;;;6.88;2.58;;;6.10;99.90;;;6.09;81.50;101035.94;4955105;29;20195;-75
2022/01/17 09:14:36;;;;;;;7.05;2.50;;;6.10;99.90;;;6.05;81.37;101028.41;4955228;28;20172;-75
2022/01/17 09:17:10;;;;;;;3.72;2.33;;;6.00;99.90;;;5.98;81.45;101049.72;4954961;29;20247;-75
2022/01/17 09:19:43;;;;;;;4.45;1.92;;;6.00;99.90;;;5.98;82.28;101081.09;4956598;28;20168;-75
2022/01/17 09:22:12;;;;;;;4.72;1.63;;;6.00;99.90;;;5.89;82.25;101103.59;4974284;28;20180;-75
2022/01/17 09:24:42;;;;;;;2.28;1.42;;;5.90;99.90;;;5.84;82.49;101090.63;4973899;28;20254;-76
2022/01/17 09:27:15;;;;;;;3.95;1.80;;;5.80;99.90;;;5.82;83.27;101099.84;4977372;28;20254;-74
2022/01/17 09:29:46;;;;;;;4.85;1.90;;;5.80;99.90;;;5.81;83.37;101119.69;4977869;28;20223;-74
2022/01/17 09:32:15;;;;;;;7.13;1.65;;;5.80;99.90;;;5.80;83.62;101132.28;4977550;28;20597;-75
2022/01/17 09:34:47;;;;;;;6.25;1.80;;;5.80;99.90;;;5.77;83.56;101127.22;4977481;28;20179;-74
2022/01/17 09:37:16;;;;;;;7.75;1.85;;;5.80;99.90;;;5.86;84.03;101146.84;4976779;28;20176;-74
2022/01/17 09:39:44;;;;;;;4.47;2.25;;;5.80;99.90;;;5.86;83.97;101163.81;4976876;28;20180;-75
2022/01/17 09:42:13;;;;;;;2.92;1.95;;;5.80;99.90;;;5.89;83.87;101170.75;4976604;28;20198;-74
2022/01/17 09:44:41;;;;;;;4.47;2.00;;;5.80;99.90;;;5.92;84.13;101189.22;4976778;28;20219;-76
2022/01/17 09:47:12;;;;;;;2.85;1.77;;;5.80;99.90;;;5.87;84.37;101224.63;4976835;28;20184;-76
2022/01/17 09:49:47;;;;;;;3.72;1.73;;;5.90;99.90;;;5.82;85.06;101218.03;4976719;28;20175;-75
2022/01/17 09:52:34;;;;;;;4.15;1.92;;;5.80;99.90;;;5.71;84.51;101229.94;4976702;28;20167;-74
2022/01/17 09:55:09;;;;;;;5.25;1.75;;;5.70;99.90;;;5.37;78.26;101248.75;4960210;28;20547;-77
2022/01/17 09:57:44;;;;;;;6.45;1.90;;;5.40;99.90;;;5.37;77.89;101251.44;4977602;28;20215;-77
2022/01/17 10:00:17;;;;;;;2.33;1.00;;;5.30;99.90;;;5.28;80.30;101264.97;4975018;28;20252;-74
2022/01/17 10:02:45;;;;;;;6.28;1.83;;;5.30;99.90;;;5.34;81.07;101265.13;4974082;28;20231;-76
2022/01/17 10:05:15;;;;;;;4.85;2.15;;;5.30;99.90;;;5.49;80.55;101268.06;4979419;28;20188;-75
2022/01/17 10:08:00;;;;;;;6.95;1.70;;;5.40;99.90;;;5.60;79.67;101265.97;4977686;28;20226;-75
2022/01/17 10:10:44;;;;;;;9.50;3.05;;;5.50;99.90;;;5.71;77.87;101267.53;4959771;28;20184;-75
2022/01/17 10:13:18;;;;;;;2.50;1.08;;;5.60;99.90;;;5.68;78.87;101273.19;4957398;28;20207;-77
2022/01/17 10:16:08;;;;;;;5.57;1.60;;;5.60;99.90;;;5.77;77.91;101284.81;4957342;28;20188;-74
2022/01/17 10:18:41;;;;;;;3.55;1.70;;;5.70;99.90;;;5.80;78.40;101296.09;4958116;28;20208;-75
2022/01/17 10:21:16;;;;;;;3.45;2.20;;;5.70;99.90;;;5.83;77.44;101282.31;4957165;29;20696;-75
2022/01/17 10:24:14;;;;;;;11.88;2.03;;;5.80;99.90;;;5.89;76.77;101295.16;4956963;28;20210;-75
2022/01/17 10:27:02;;;;;;;10.32;1.95;;;5.80;99.90;;;5.95;77.41;101286.44;4956755;28;20176;-76
2022/01/17 10:35:16;;;;;;;5.43;1.70;;;5.90;99.90;;;5.97;77.13;101323.88;4958115;28;20615;-74
2022/01/17 10:38:07;;;;;;;12.30;2.58;;;5.90;99.90;;;5.98;77.00;101325.56;4958453;28;20204;-76
2022/01/17 10:40:41;;;;;;;5.05;2.83;;;5.90;99.90;;;6.03;76.77;101331.28;4966884;28;20223;-77
2022/01/17 10:43:21;;;;;;;8.13;3.92;;;6.00;99.90;;;5.97;76.08;101337.31;4978473;28;20194;-76
2022/01/17 10:45:50;;;;;;;6.32;2.65;;;5.90;99.90;;;6.02;75.92;101357.31;4977742;28;20327;-77
2022/01/17 10:48:18;;;;;;;10.25;4.82;;;5.90;99.90;;;6.08;75.75;101371.97;4978847;28;20215;-77
2022/01/17 10:50:50;;;;;;;5.40;3.30;;;6.00;99.90;;;6.05;76.11;101391.91;4986580;28;20668;-77
2022/01/17 10:53:19;;;;;;;8.40;2.75;;;6.00;99.90;;;6.14;75.80;101389.28;4985033;28;20187;-76
2022/01/17 10:55:52;;;;;;;4.65;2.95;;;6.00;99.90;;;6.15;76.05;101385.59;4981747;28;20191;-77
2022/01/17 10:58:26;;;;;;;7.88;2.45;;;6.00;99.90;;;6.02;74.97;101394.94;4989606;28;20222;-79